createdAt,value
2023-04-27T00:02:03.295Z,66.54
2023-04-27T00:04:30.586Z,66.73
2023-04-27T00:06:57.857Z,66.45
2023-04-27T00:09:24.806Z,66.20
2023-04-27T00:11:51.749Z,66.70
2023-04-27T00:14:18.699Z,66.50
2023-04-27T00:16:46.215Z,67.25
2023-04-27T00:19:14.161Z,67.94
2023-04-27T00:21:41.978Z,67.84
2023-04-27T00:24:08.900Z,67.90
2023-04-27T00:26:35.685Z,67.87
2023-04-27T00:29:02.553Z,67.65
2023-04-27T00:31:29.572Z,67.71
2023-04-27T00:33:56.574Z,67.51
2023-04-27T00:36:23.511Z,67.53
2023-04-27T00:38:50.465Z,67.31
2023-04-27T00:41:17.417Z,67.14
2023-04-27T00:43:44.983Z,66.97
2023-04-27T00:46:12.141Z,67.00
2023-04-27T00:48:40.672Z,66.74
2023-04-27T00:51:07.438Z,66.91
2023-04-27T00:53:34.415Z,67.73
2023-04-27T00:56:01.278Z,68.50
2023-04-27T00:58:29.446Z,68.63
2023-04-27T01:00:56.657Z,68.25
2023-04-27T01:03:23.736Z,67.71
2023-04-27T01:05:51.008Z,67.79
2023-04-27T01:08:17.802Z,67.58
2023-04-27T01:10:44.750Z,67.62
2023-04-27T01:13:12.095Z,67.78
2023-04-27T01:15:38.842Z,67.69
2023-04-27T01:18:10.132Z,67.87
2023-04-27T01:20:38.978Z,68.07
2023-04-27T01:23:06.446Z,68.35
2023-04-27T01:25:33.581Z,68.55
2023-04-27T01:28:02.804Z,68.69
2023-04-27T01:30:30.273Z,68.80
2023-04-27T01:32:58.946Z,68.75
2023-04-27T01:35:28.120Z,68.49
2023-04-27T01:37:58.897Z,68.65
2023-04-27T01:40:25.769Z,68.55
2023-04-27T01:42:53.688Z,68.43
2023-04-27T01:45:20.887Z,68.49
2023-04-27T01:47:47.706Z,68.71
2023-04-27T01:50:14.618Z,68.79
2023-04-27T01:52:41.446Z,68.69
2023-04-27T01:55:08.745Z,68.85
2023-04-27T01:57:35.846Z,69.13
2023-04-27T02:00:02.750Z,69.20
2023-04-27T02:02:47.565Z,69.28
2023-04-27T02:05:14.471Z,69.63
2023-04-27T02:07:41.225Z,70.02
2023-04-27T02:10:08.308Z,70.49
2023-04-27T02:12:35.208Z,71.26
2023-04-27T02:15:03.835Z,72.00
2023-04-27T02:17:31.784Z,71.97
2023-04-27T02:19:58.918Z,72.02
2023-04-27T02:22:27.221Z,71.83
2023-04-27T02:24:54.052Z,71.48
2023-04-27T02:27:20.896Z,71.26
2023-04-27T02:29:48.260Z,71.34
2023-04-27T02:32:15.739Z,71.24
2023-04-27T02:34:42.677Z,71.19
2023-04-27T02:37:09.545Z,70.99
2023-04-27T02:39:36.322Z,72.26
2023-04-27T02:42:05.874Z,71.98
2023-04-27T02:44:32.730Z,71.65
2023-04-27T02:46:59.741Z,71.69
2023-04-27T02:49:26.589Z,71.69
2023-04-27T02:51:53.315Z,71.62
2023-04-27T02:54:20.250Z,71.49
2023-04-27T02:56:47.166Z,71.59
2023-04-27T02:59:14.274Z,71.51
2023-04-27T03:01:41.516Z,71.18
2023-04-27T03:04:08.871Z,71.66
2023-04-27T03:06:35.911Z,72.20
2023-04-27T03:09:03.972Z,72.10
2023-04-27T03:11:31.023Z,72.28
2023-04-27T03:13:57.858Z,72.15
2023-04-27T03:16:24.714Z,72.09
2023-04-27T03:18:51.499Z,72.26
2023-04-27T03:21:18.411Z,72.59
2023-04-27T03:23:49.148Z,72.98
2023-04-27T03:26:16.320Z,73.31
2023-04-27T03:28:43.154Z,73.44
2023-04-27T03:31:10.568Z,73.38
2023-04-27T03:33:37.925Z,74.62
2023-04-27T03:36:05.009Z,75.20
2023-04-27T03:38:31.984Z,75.10
2023-04-27T03:40:58.941Z,74.85
2023-04-27T03:43:26.084Z,75.02
2023-04-27T03:45:53.138Z,75.04
2023-04-27T03:48:20.193Z,75.20
2023-04-27T03:50:47.264Z,74.90
2023-04-27T03:53:16.057Z,74.93
2023-04-27T03:55:44.116Z,74.85
2023-04-27T03:58:11.785Z,75.00
2023-04-27T04:00:46.923Z,75.18
2023-04-27T04:03:14.326Z,75.30
2023-04-27T04:05:41.468Z,75.08
2023-04-27T04:08:09.207Z,75.77
2023-04-27T04:10:36.002Z,75.76
2023-04-27T04:13:02.830Z,75.51
2023-04-27T04:15:29.812Z,75.62
2023-04-27T04:17:56.676Z,76.30
2023-04-27T04:20:23.647Z,76.00
2023-04-27T04:22:50.602Z,75.23
2023-04-27T04:25:18.105Z,75.15
2023-04-27T04:27:44.942Z,75.09
2023-04-27T04:30:12.831Z,74.73
2023-04-27T04:32:40.462Z,74.74
2023-04-27T04:35:07.807Z,74.66
2023-04-27T04:37:35.573Z,75.05
2023-04-27T04:40:10.395Z,75.16
2023-04-27T04:42:38.170Z,75.34
2023-04-27T04:45:05.959Z,75.36
2023-04-27T04:47:33.291Z,75.68
2023-04-27T04:50:00.353Z,75.81
2023-04-27T04:52:29.603Z,75.95
2023-04-27T04:54:56.538Z,75.85
2023-04-27T04:57:23.459Z,75.66
2023-04-27T04:59:50.414Z,75.43
2023-04-27T05:02:17.411Z,75.29
2023-04-27T05:04:44.401Z,75.47
2023-04-27T05:07:14.755Z,75.54
2023-04-27T05:09:42.166Z,75.26
2023-04-27T05:12:09.057Z,75.20
2023-04-27T05:14:36.105Z,75.29
2023-04-27T05:17:02.952Z,75.46
2023-04-27T05:19:30.235Z,75.41
2023-04-27T05:21:57.990Z,75.42
2023-04-27T05:24:25.441Z,75.44
2023-04-27T05:26:52.228Z,75.84
2023-04-27T05:29:19.010Z,75.86
2023-04-27T05:31:45.954Z,76.35
2023-04-27T05:34:13.551Z,76.35
2023-04-27T05:36:40.567Z,76.15
2023-04-27T05:39:07.802Z,76.25
2023-04-27T05:41:35.455Z,76.46
2023-04-27T05:44:02.278Z,76.13
2023-04-27T05:46:29.206Z,75.44
2023-04-27T05:48:56.081Z,74.70
2023-04-27T05:51:25.686Z,74.40
2023-04-27T05:53:55.466Z,73.41
2023-04-27T05:56:22.365Z,72.75
2023-04-27T05:58:49.184Z,72.05
2023-04-27T06:01:16.305Z,71.14
2023-04-27T06:03:44.129Z,69.36
2023-04-27T06:06:11.394Z,65.97
2023-04-27T06:08:39.627Z,63.20
2023-04-27T06:11:07.013Z,61.28
2023-04-27T06:13:34.144Z,60.57
2023-04-27T06:16:01.311Z,60.57
2023-04-27T06:18:28.196Z,60.68
2023-04-27T06:20:59.036Z,60.89
2023-04-27T06:23:25.848Z,61.18
2023-04-27T06:25:52.603Z,61.02
2023-04-27T06:28:19.477Z,60.83
2023-04-27T06:30:46.330Z,60.18
2023-04-27T06:33:13.171Z,58.84
2023-04-27T06:35:40.045Z,57.35
2023-04-27T06:38:08.054Z,55.18
2023-04-27T06:40:35.560Z,53.85
2023-04-27T06:43:02.511Z,53.31
2023-04-27T06:45:29.372Z,50.78
2023-04-27T06:47:56.391Z,49.07
2023-04-27T06:50:23.229Z,48.70
2023-04-27T06:52:50.216Z,48.84
2023-04-27T06:55:17.266Z,46.93
2023-04-27T06:57:44.121Z,46.63
2023-04-27T07:00:13.391Z,48.66
2023-04-27T07:02:40.368Z,49.45
2023-04-27T07:05:07.542Z,49.31
2023-04-27T07:07:34.483Z,48.56
2023-04-27T07:10:02.788Z,46.86
2023-04-27T07:12:30.152Z,46.78
2023-04-27T07:14:57.017Z,46.71
2023-04-27T07:17:23.973Z,45.11
2023-04-27T07:19:51.016Z,42.55
2023-04-27T07:22:18.034Z,43.99
2023-04-27T07:24:45.089Z,44.65
2023-04-27T07:27:16.173Z,45.23
2023-04-27T07:29:43.647Z,46.36
2023-04-27T07:32:10.878Z,46.12
2023-04-27T07:34:52.148Z,45.21
2023-04-27T07:37:21.195Z,44.33
2023-04-27T07:39:49.017Z,42.09
2023-04-27T07:42:16.219Z,41.64
2023-04-27T07:44:43.096Z,43.79
2023-04-27T07:47:10.766Z,44.71
2023-04-27T07:49:38.379Z,45.74
2023-04-27T07:52:05.676Z,47.29
2023-04-27T07:54:32.732Z,47.61
2023-04-27T07:56:59.703Z,48.04
2023-04-27T07:59:30.764Z,49.02
2023-04-27T08:02:15.013Z,49.72
2023-04-27T08:04:45.110Z,50.76
2023-04-27T08:07:12.801Z,51.50
2023-04-27T08:09:39.838Z,51.83
2023-04-27T08:12:06.778Z,51.59
2023-04-27T08:14:37.101Z,52.12
2023-04-27T08:17:04.006Z,52.05
2023-04-27T08:19:30.893Z,51.31
2023-04-27T08:21:57.657Z,50.49
2023-04-27T08:24:24.659Z,50.08
2023-04-27T08:26:51.671Z,50.30
2023-04-27T08:29:27.108Z,49.94
2023-04-27T08:31:56.783Z,47.50
2023-04-27T08:34:24.055Z,47.13
2023-04-27T08:36:51.150Z,47.60
2023-04-27T08:39:18.599Z,48.32
2023-04-27T08:41:45.661Z,49.12
2023-04-27T08:44:17.061Z,49.90
2023-04-27T08:46:44.251Z,50.32
2023-04-27T08:49:12.322Z,51.81
2023-04-27T08:51:40.447Z,52.35
2023-04-27T08:54:07.295Z,51.95
2023-04-27T08:56:34.617Z,52.38
2023-04-27T08:59:04.223Z,52.29
2023-04-27T09:01:32.297Z,52.26
2023-04-27T09:04:00.259Z,52.18
2023-04-27T09:06:34.123Z,52.20
2023-04-27T09:09:00.997Z,51.72
2023-04-27T09:11:31.778Z,51.64
2023-04-27T09:13:58.973Z,51.43
2023-04-27T09:16:26.563Z,51.60
2023-04-27T09:18:53.602Z,51.36
2023-04-27T09:21:27.718Z,49.92
2023-04-27T09:23:54.664Z,49.82
2023-04-27T09:26:38.896Z,50.23
2023-04-27T09:29:12.029Z,50.71
2023-04-27T09:31:39.239Z,50.47
2023-04-27T09:34:06.560Z,50.91
2023-04-27T09:36:33.603Z,50.79
2023-04-27T09:39:03.328Z,50.28
2023-04-27T09:41:30.200Z,49.46
2023-04-27T09:43:58.001Z,49.38
2023-04-27T09:46:26.267Z,50.28
2023-04-27T09:48:53.675Z,48.74
2023-04-27T09:51:20.745Z,48.75
2023-04-27T09:53:50.150Z,47.41
2023-04-27T09:56:35.526Z,47.17
2023-04-27T09:59:07.774Z,46.32
2023-04-27T10:02:09.978Z,46.88
2023-04-27T10:04:56.319Z,45.60
2023-04-27T10:07:23.294Z,44.42
2023-04-27T10:09:51.988Z,43.66
2023-04-27T10:12:18.885Z,43.86
2023-04-27T10:15:08.974Z,44.11
2023-04-27T10:17:36.554Z,44.12
2023-04-27T10:20:04.551Z,44.06
2023-04-27T10:22:52.526Z,44.29
2023-04-27T10:25:21.803Z,45.07
2023-04-27T10:27:50.183Z,45.64
2023-04-27T10:30:17.887Z,45.86
2023-04-27T10:32:54.956Z,45.37
2023-04-27T10:35:22.703Z,44.95
2023-04-27T10:37:49.681Z,45.18
2023-04-27T10:40:19.771Z,44.63
2023-04-27T10:42:48.356Z,40.15
2023-04-27T10:45:15.202Z,40.29
2023-04-27T10:47:42.973Z,40.34
2023-04-27T10:50:11.690Z,37.44
2023-04-27T10:52:46.497Z,37.63
2023-04-27T10:55:16.177Z,37.64
2023-04-27T10:57:50.251Z,36.36
2023-04-27T11:00:44.268Z,35.54
2023-04-27T11:03:14.782Z,34.87
2023-04-27T11:05:43.004Z,35.25
2023-04-27T11:08:10.623Z,35.69
2023-04-27T11:10:44.585Z,35.43
2023-04-27T11:13:12.543Z,35.21
2023-04-27T11:15:58.495Z,35.80
2023-04-27T11:18:36.468Z,36.12
2023-04-27T11:21:09.528Z,37.22
2023-04-27T11:23:39.832Z,37.70
2023-04-27T11:26:17.009Z,38.04
2023-04-27T11:28:44.398Z,37.84
2023-04-27T11:31:11.809Z,38.24
2023-04-27T11:33:40.393Z,38.61
2023-04-27T11:36:16.984Z,39.08
2023-04-27T11:38:43.863Z,39.52
2023-04-27T11:41:10.877Z,39.71
2023-04-27T11:43:42.275Z,39.50
2023-04-27T11:46:11.252Z,38.87
2023-04-27T11:48:40.392Z,38.89
2023-04-27T11:51:07.632Z,39.12
2023-04-27T11:53:40.731Z,40.06
2023-04-27T11:56:08.309Z,39.41
2023-04-27T11:58:36.275Z,39.53
2023-04-27T12:01:04.441Z,40.09
2023-04-27T12:03:32.012Z,40.96
2023-04-27T12:08:32.054Z,41.71
2023-04-27T12:10:58.997Z,42.11
2023-04-27T12:13:25.794Z,43.13
2023-04-27T12:15:53.111Z,43.60
2023-04-27T12:18:20.987Z,43.73
2023-04-27T12:20:47.950Z,44.24
2023-04-27T12:23:15.450Z,45.02
2023-04-27T12:25:44.292Z,44.91
2023-04-27T12:28:12.364Z,45.03
2023-04-27T12:30:39.332Z,43.29
2023-04-27T12:33:11.333Z,43.55
2023-04-27T12:35:38.348Z,42.84
2023-04-27T12:38:05.156Z,42.43
2023-04-27T12:40:32.038Z,42.65
2023-04-27T12:43:01.044Z,42.98
2023-04-27T12:45:28.903Z,43.16
2023-04-27T12:48:03.159Z,43.42
2023-04-27T12:50:30.923Z,43.54
2023-04-27T12:52:57.693Z,43.91
2023-04-27T12:55:33.223Z,44.39
2023-04-27T12:58:01.666Z,44.75
2023-04-27T13:00:29.882Z,44.82
2023-04-27T13:02:57.411Z,44.95
2023-04-27T13:05:24.477Z,45.25
2023-04-27T13:07:51.285Z,44.65
2023-04-27T13:10:18.099Z,44.97
2023-04-27T13:12:44.906Z,44.37
2023-04-27T13:15:11.886Z,43.78
2023-04-27T13:17:38.768Z,43.45
2023-04-27T13:20:07.469Z,43.76
2023-04-27T13:22:34.349Z,43.83
2023-04-27T13:25:01.495Z,43.13
2023-04-27T13:27:28.686Z,43.14
2023-04-27T13:29:56.194Z,43.78
2023-04-27T13:32:23.228Z,44.44
2023-04-27T13:34:50.119Z,44.69
2023-04-27T13:37:17.479Z,44.84
2023-04-27T13:39:44.332Z,44.77
2023-04-27T13:42:11.632Z,44.99
2023-04-27T13:44:38.552Z,44.98
2023-04-27T13:47:05.778Z,44.59
2023-04-27T13:49:32.848Z,44.49
2023-04-27T13:52:00.149Z,44.45
2023-04-27T13:54:27.496Z,44.53
2023-04-27T13:56:54.316Z,44.32
2023-04-27T13:59:21.924Z,44.76
2023-04-27T14:01:48.869Z,45.21
2023-04-27T14:04:15.822Z,45.25
2023-04-27T14:06:42.679Z,45.29
2023-04-27T14:09:09.574Z,45.39
2023-04-27T14:11:48.506Z,45.63
2023-04-27T14:14:22.645Z,45.72
2023-04-27T14:16:51.474Z,45.80
2023-04-27T14:19:20.608Z,45.90
2023-04-27T14:21:48.121Z,46.22
2023-04-27T14:24:15.057Z,46.54
2023-04-27T14:26:46.684Z,46.75
2023-04-27T14:29:13.885Z,46.97
2023-04-27T14:31:41.146Z,47.24
2023-04-27T14:34:08.391Z,47.40
2023-04-27T14:36:36.002Z,47.67
2023-04-27T14:39:03.176Z,47.78
2023-04-27T14:41:30.089Z,47.96
2023-04-27T14:43:56.993Z,47.96
2023-04-27T14:46:23.839Z,47.89
2023-04-27T14:48:51.558Z,47.53
2023-04-27T14:51:18.494Z,47.12
2023-04-27T14:53:45.391Z,47.02
2023-04-27T14:56:12.205Z,47.44
2023-04-27T14:58:39.246Z,47.60
2023-04-27T15:01:06.993Z,48.22
2023-04-27T15:03:34.204Z,49.44
2023-04-27T15:06:01.514Z,50.57
2023-04-27T15:08:29.316Z,51.55
2023-04-27T15:10:59.865Z,52.78
2023-04-27T15:13:27.353Z,54.98
2023-04-27T15:15:57.762Z,56.82
2023-04-27T15:18:24.903Z,58.11
2023-04-27T15:20:55.255Z,59.08
2023-04-27T15:23:22.307Z,59.69
2023-04-27T15:25:49.259Z,60.78
2023-04-27T15:28:16.758Z,61.58
2023-04-27T15:30:46.770Z,62.31
2023-04-27T15:33:14.286Z,62.47
2023-04-27T15:35:41.585Z,62.78
2023-04-27T15:38:10.187Z,63.18
2023-04-27T15:40:37.330Z,63.77
2023-04-27T15:43:05.093Z,63.91
2023-04-27T15:45:32.153Z,63.99
2023-04-27T15:47:59.098Z,64.04
2023-04-27T15:50:25.987Z,64.05
2023-04-27T15:52:53.184Z,64.54
2023-04-27T15:55:20.029Z,64.51
2023-04-27T15:57:46.841Z,64.46
2023-04-27T16:00:16.409Z,64.26
2023-04-27T16:02:43.993Z,64.43
2023-04-27T16:05:11.053Z,64.41
2023-04-27T16:07:39.857Z,64.37
2023-04-27T16:10:07.451Z,64.34
2023-04-27T16:12:34.721Z,63.93
2023-04-27T16:15:01.684Z,63.79
2023-04-27T16:17:29.288Z,64.18
2023-04-27T16:19:56.521Z,64.22
2023-04-27T16:22:23.503Z,64.18
2023-04-27T16:24:50.702Z,64.13
2023-04-27T16:27:17.757Z,64.00
2023-04-27T16:29:45.116Z,64.30
2023-04-27T16:32:12.003Z,64.39
2023-04-27T16:34:38.901Z,64.87
2023-04-27T16:37:05.730Z,65.21
2023-04-27T16:39:33.018Z,65.60
2023-04-27T16:41:59.803Z,64.92
2023-04-27T16:44:26.976Z,64.73
2023-04-27T16:46:53.884Z,64.83
2023-04-27T16:49:20.718Z,64.95
2023-04-27T16:51:47.671Z,65.30
2023-04-27T16:54:16.690Z,65.63
2023-04-27T16:56:43.724Z,65.36
2023-04-27T16:59:13.670Z,65.39
2023-04-27T17:01:40.858Z,65.63
2023-04-27T17:04:07.858Z,65.78
2023-04-27T17:06:35.051Z,65.86
2023-04-27T17:09:01.857Z,65.93
2023-04-27T17:11:28.713Z,65.89
2023-04-27T17:13:55.758Z,65.75
2023-04-27T17:16:23.625Z,65.62
2023-04-27T17:18:50.673Z,65.57
2023-04-27T17:21:17.547Z,65.61
2023-04-27T17:23:46.766Z,65.78
2023-04-27T17:26:16.139Z,65.90
2023-04-27T17:28:42.979Z,66.30
2023-04-27T17:31:09.797Z,66.75
2023-04-27T17:33:36.685Z,67.21
2023-04-27T17:36:03.832Z,67.32
2023-04-27T17:38:30.630Z,67.55
2023-04-27T17:40:57.487Z,67.89
2023-04-27T17:43:24.257Z,68.11
2023-04-27T17:45:51.232Z,68.29
2023-04-27T17:48:18.431Z,68.70
2023-04-27T17:50:45.276Z,69.21
2023-04-27T17:53:13.006Z,69.19
2023-04-27T17:55:39.907Z,69.78
2023-04-27T17:58:06.806Z,69.94
2023-04-27T18:00:33.779Z,70.08
2023-04-27T18:03:01.023Z,70.21
2023-04-27T18:05:28.037Z,70.31
2023-04-27T18:07:54.916Z,70.26
2023-04-27T18:10:21.764Z,70.48
2023-04-27T18:12:48.880Z,71.18
2023-04-27T18:15:15.894Z,71.57
2023-04-27T18:17:42.839Z,72.10
2023-04-27T18:20:10.794Z,72.04
2023-04-27T18:22:39.418Z,72.21
2023-04-27T18:25:06.495Z,72.01
2023-04-27T18:27:33.319Z,72.05
2023-04-27T18:30:00.152Z,72.84
2023-04-27T18:32:26.988Z,73.54
2023-04-27T18:34:54.079Z,74.09
2023-04-27T18:37:20.893Z,74.66
2023-04-27T18:39:47.670Z,75.24
2023-04-27T18:42:14.514Z,75.79
2023-04-27T18:44:41.837Z,75.88
2023-04-27T18:47:08.690Z,75.62
2023-04-27T18:49:35.479Z,75.24
2023-04-27T18:52:02.246Z,75.35
2023-04-27T18:54:29.016Z,75.53
2023-04-27T18:56:56.066Z,75.82
2023-04-27T18:59:22.923Z,75.62
2023-04-27T19:01:49.840Z,76.43
2023-04-27T19:04:16.949Z,76.80
2023-04-27T19:06:43.816Z,77.08
2023-04-27T19:09:11.042Z,77.21
2023-04-27T19:11:37.886Z,77.61
2023-04-27T19:14:04.956Z,77.81
2023-04-27T19:16:31.835Z,77.98
2023-04-27T19:18:58.731Z,77.95
2023-04-27T19:21:25.782Z,77.96
2023-04-27T19:23:52.576Z,77.74
2023-04-27T19:26:19.487Z,78.36
2023-04-27T19:28:46.461Z,78.53
2023-04-27T19:31:13.587Z,78.80
2023-04-27T19:33:46.680Z,79.31
2023-04-27T19:36:14.246Z,79.02
2023-04-27T19:38:41.290Z,78.96
2023-04-27T19:41:08.151Z,78.60
2023-04-27T19:43:34.989Z,78.69
2023-04-27T19:46:01.878Z,78.88
2023-04-27T19:48:28.788Z,78.81
2023-04-27T19:50:55.635Z,79.14
2023-04-27T19:53:22.485Z,79.34
2023-04-27T19:55:49.266Z,79.43
2023-04-27T19:58:16.220Z,79.64
2023-04-27T20:00:43.014Z,79.79
2023-04-27T20:03:10.409Z,79.98
2023-04-27T20:05:37.836Z,80.42
2023-04-27T20:08:04.818Z,80.84
2023-04-27T20:10:31.785Z,81.20
2023-04-27T20:12:58.583Z,81.50
2023-04-27T20:15:25.448Z,82.02
2023-04-27T20:17:55.399Z,82.16
2023-04-27T20:20:22.213Z,82.46
2023-04-27T20:22:49.062Z,82.73
2023-04-27T20:25:15.855Z,82.75
2023-04-27T20:27:42.637Z,83.07
2023-04-27T20:30:09.796Z,83.20
2023-04-27T20:32:37.144Z,83.24
2023-04-27T20:35:04.965Z,83.58
2023-04-27T20:37:32.583Z,83.73
2023-04-27T20:40:01.111Z,83.57
2023-04-27T20:42:29.782Z,83.58
2023-04-27T20:44:56.517Z,83.53
2023-04-27T20:47:23.377Z,84.01
2023-04-27T20:49:50.172Z,84.01
2023-04-27T20:52:17.106Z,84.07
2023-04-27T20:54:44.042Z,84.03
2023-04-27T20:57:14.300Z,84.16
2023-04-27T20:59:41.658Z,84.02
2023-04-27T21:02:08.671Z,84.12
2023-04-27T21:04:35.598Z,84.03
2023-04-27T21:07:02.679Z,83.88
2023-04-27T21:09:29.435Z,84.04
2023-04-27T21:11:56.186Z,83.81
2023-04-27T21:14:22.944Z,84.04
2023-04-27T21:16:49.747Z,83.97
2023-04-27T21:19:16.816Z,84.05
2023-04-27T21:21:43.622Z,84.26
2023-04-27T21:24:10.741Z,84.64
2023-04-27T21:26:37.576Z,84.86
2023-04-27T21:29:06.062Z,84.98
2023-04-27T21:31:33.468Z,85.19
2023-04-27T21:34:01.002Z,85.44
2023-04-27T21:36:27.924Z,85.46
2023-04-27T21:38:54.821Z,85.70
2023-04-27T21:41:21.845Z,85.89
2023-04-27T21:43:48.607Z,86.39
2023-04-27T21:46:15.650Z,86.20
2023-04-27T21:48:42.414Z,86.16
2023-04-27T21:51:09.325Z,86.24
2023-04-27T21:53:36.379Z,86.13
2023-04-27T21:56:03.232Z,85.87
2023-04-27T21:58:30.048Z,85.87
2023-04-27T22:00:56.798Z,85.94
2023-04-27T22:03:23.786Z,86.11
2023-04-27T22:05:50.709Z,85.87
2023-04-27T22:08:18.005Z,85.90
2023-04-27T22:10:45.135Z,85.97
2023-04-27T22:15:42.053Z,85.76
2023-04-27T22:18:09.067Z,85.76
2023-04-27T22:20:36.099Z,85.77
2023-04-27T22:23:02.946Z,85.54
2023-04-27T22:25:29.803Z,85.74
2023-04-27T22:27:56.589Z,85.59
2023-04-27T22:30:23.409Z,85.79
2023-04-27T22:32:50.319Z,85.69
2023-04-27T22:37:49.054Z,86.14
2023-04-27T22:40:16.039Z,86.28
2023-04-27T22:42:42.851Z,86.38
2023-04-27T22:45:10.460Z,86.93
2023-04-27T22:47:38.356Z,86.96
2023-04-27T22:50:06.182Z,87.25
2023-04-27T22:52:33.938Z,87.25
2023-04-27T22:55:02.328Z,87.48
2023-04-27T22:57:29.364Z,87.73
2023-04-27T22:59:56.563Z,87.61
2023-04-27T23:02:23.537Z,87.56
2023-04-27T23:04:50.624Z,87.52
2023-04-27T23:07:18.602Z,87.79
2023-04-27T23:09:45.924Z,87.96
2023-04-27T23:12:12.798Z,88.07
2023-04-27T23:14:42.421Z,88.28
2023-04-27T23:17:10.349Z,88.54
2023-04-27T23:19:37.344Z,88.50
2023-04-27T23:22:04.320Z,88.63
2023-04-27T23:24:31.446Z,88.74
2023-04-27T23:26:58.669Z,88.84
2023-04-27T23:29:25.764Z,88.81
2023-04-27T23:31:52.626Z,88.86
2023-04-27T23:34:19.558Z,88.80
2023-04-27T23:36:46.564Z,88.91
2023-04-27T23:39:13.311Z,88.88
2023-04-27T23:41:40.110Z,88.87
2023-04-27T23:44:06.962Z,89.11
2023-04-27T23:46:34.487Z,89.34
2023-04-27T23:49:01.677Z,89.37
2023-04-27T23:51:28.622Z,89.36
2023-04-27T23:53:55.483Z,89.49
2023-04-27T23:56:23.178Z,89.53
2023-04-27T23:58:50.278Z,89.31
